Coffeen, Illinois
Current Conditions -  °F | °C
As of 1:55 PM on Friday 24 Oct 2014 (Local Time) from K3LF Reporting Station
Scattered Clouds Scattered Clouds  
Wind Chill: 63°   Ceiling: Unl
Heat Index: 63°   Visibility: 10mi
Dew Point: 54°   Wind: 6mph
Humidity: 72%   Direction: 220°SW
Pressure: 30.06"   Gusts: NA
Location:  39.09°N, 89.39°W
Report Text: K3LF 241855Z AUTO 22005KT 10SM SCT015 17/12 A3006 RMK AO2 T01710120
Loading
Personal Weather Stations






























Interactive Weather Map
Tropical Storm Tracking
New forecast layout! Learn more

10-Day Weather Forecast

Advertisements
Track Severe Weather on mobile